Rixensart, Belgium
Current Conditions -  °F | °C
As of 6:25 AM on Monday 22 Dec 2014 (Local Time) from EBBE Reporting Station
Drizzle Drizzle  
Wind Chill: 38°   Ceiling: 1100
Heat Index: 46°   Visibility: 6mi
Dew Point: 43°   Wind: 26mph
Humidity: 87%   Direction: 220°SW
Pressure: 30.18"   Gusts: NA
Location:  50.71°N, 4.53°E
Report Text: EBBE 220525Z 22023KT 9999 -DZ SCT009 OVC011 08/06 Q1022 GRN GRN
Loading
Personal Weather Stations






























Interactive Weather Map New forecast layout! Learn more

10-Day Weather Forecast

Advertisements
Track Severe Weather on mobile